sensor_id;sensor_type;location;lat;lon;timestamp;temperature;humidity
48206;DHT22;33995;48.202;16.260;2023-03-14T00:01:48;10.00;99.90
48206;DHT22;33995;48.202;16.260;2023-03-14T00:04:15;9.90;99.90
48206;DHT22;33995;48.202;16.260;2023-03-14T00:06:42;9.90;99.90
48206;DHT22;33995;48.202;16.260;2023-03-14T00:09:09;9.80;99.90
48206;DHT22;33995;48.202;16.260;2023-03-14T00:11:36;9.70;99.90
48206;DHT22;33995;48.202;16.260;2023-03-14T00:14:03;9.80;99.90
48206;DHT22;33995;48.202;16.260;2023-03-14T00:16:30;9.70;99.90
48206;DHT22;33995;48.202;16.260;2023-03-14T00:19:01;9.60;99.90
48206;DHT22;33995;48.202;16.260;2023-03-14T00:21:28;9.60;99.90
48206;DHT22;33995;48.202;16.260;2023-03-14T00:23:55;9.70;99.90
48206;DHT22;33995;48.202;16.260;2023-03-14T00:26:22;9.80;99.90
48206;DHT22;33995;48.202;16.260;2023-03-14T00:28:53;9.80;99.90
48206;DHT22;33995;48.202;16.260;2023-03-14T00:31:21;9.90;99.90
48206;DHT22;33995;48.202;16.260;2023-03-14T00:33:48;9.80;99.90
48206;DHT22;33995;48.202;16.260;2023-03-14T00:36:16;9.70;99.90
48206;DHT22;33995;48.202;16.260;2023-03-14T00:38:45;9.60;99.90
48206;DHT22;33995;48.202;16.260;2023-03-14T00:41:20;9.60;99.90
48206;DHT22;33995;48.202;16.260;2023-03-14T00:43:49;9.40;99.90
48206;DHT22;33995;48.202;16.260;2023-03-14T00:46:17;9.30;99.90
48206;DHT22;33995;48.202;16.260;2023-03-14T00:48:45;9.30;99.90
48206;DHT22;33995;48.202;16.260;2023-03-14T00:51:12;9.30;99.90
48206;DHT22;33995;48.202;16.260;2023-03-14T00:53:43;9.40;99.90
48206;DHT22;33995;48.202;16.260;2023-03-14T00:56:12;9.30;99.90
48206;DHT22;33995;48.202;16.260;2023-03-14T00:58:39;9.20;99.90
48206;DHT22;33995;48.202;16.260;2023-03-14T01:01:15;9.10;99.90
48206;DHT22;33995;48.202;16.260;2023-03-14T01:03:42;8.80;99.90
48206;DHT22;33995;48.202;16.260;2023-03-14T01:06:18;8.80;99.90
48206;DHT22;33995;48.202;16.260;2023-03-14T01:08:46;8.70;99.90
48206;DHT22;33995;48.202;16.260;2023-03-14T01:11:17;8.60;99.90
48206;DHT22;33995;48.202;16.260;2023-03-14T01:13:44;8.50;99.90
48206;DHT22;33995;48.202;16.260;2023-03-14T01:16:13;8.50;99.90
48206;DHT22;33995;48.202;16.260;2023-03-14T01:18:43;8.40;99.90
48206;DHT22;33995;48.202;16.260;2023-03-14T01:21:16;8.50;99.90
48206;DHT22;33995;48.202;16.260;2023-03-14T01:23:44;8.30;99.90
48206;DHT22;33995;48.202;16.260;2023-03-14T01:26:13;8.40;99.90
48206;DHT22;33995;48.202;16.260;2023-03-14T01:28:41;8.30;99.90
48206;DHT22;33995;48.202;16.260;2023-03-14T01:31:10;8.30;99.90
48206;DHT22;33995;48.202;16.260;2023-03-14T01:33:38;8.20;99.90
48206;DHT22;33995;48.202;16.260;2023-03-14T01:36:07;8.20;99.90
48206;DHT22;33995;48.202;16.260;2023-03-14T01:38:36;8.20;99.90
48206;DHT22;33995;48.202;16.260;2023-03-14T01:41:07;8.00;99.90
48206;DHT22;33995;48.202;16.260;2023-03-14T01:43:34;7.90;99.90
48206;DHT22;33995;48.202;16.260;2023-03-14T01:48:46;7.90;99.90
48206;DHT22;33995;48.202;16.260;2023-03-14T01:51:24;7.80;99.90
48206;DHT22;33995;48.202;16.260;2023-03-14T01:53:56;7.90;99.90
48206;DHT22;33995;48.202;16.260;2023-03-14T01:56:27;7.80;99.90
48206;DHT22;33995;48.202;16.260;2023-03-14T01:58:54;7.90;99.90
48206;DHT22;33995;48.202;16.260;2023-03-14T02:01:24;7.70;99.90
48206;DHT22;33995;48.202;16.260;2023-03-14T02:03:55;7.80;99.90
48206;DHT22;33995;48.202;16.260;2023-03-14T02:06:29;7.70;99.90
48206;DHT22;33995;48.202;16.260;2023-03-14T02:09:01;7.60;99.90
48206;DHT22;33995;48.202;16.260;2023-03-14T02:11:31;7.50;99.90
48206;DHT22;33995;48.202;16.260;2023-03-14T02:14:03;7.40;99.90
48206;DHT22;33995;48.202;16.260;2023-03-14T02:16:51;7.40;99.90
48206;DHT22;33995;48.202;16.260;2023-03-14T02:19:35;7.50;99.90
48206;DHT22;33995;48.202;16.260;2023-03-14T02:22:20;7.50;99.90
48206;DHT22;33995;48.202;16.260;2023-03-14T02:25:08;7.50;99.90
48206;DHT22;33995;48.202;16.260;2023-03-14T02:27:38;7.50;99.90
48206;DHT22;33995;48.202;16.260;2023-03-14T02:30:15;7.30;99.90
48206;DHT22;33995;48.202;16.260;2023-03-14T02:32:47;7.40;99.90
48206;DHT22;33995;48.202;16.260;2023-03-14T02:35:19;7.20;99.90
48206;DHT22;33995;48.202;16.260;2023-03-14T02:38:17;7.20;99.90
48206;DHT22;33995;48.202;16.260;2023-03-14T02:40:49;7.20;99.90
48206;DHT22;33995;48.202;16.260;2023-03-14T02:43:17;7.20;99.90
48206;DHT22;33995;48.202;16.260;2023-03-14T02:45:51;7.20;99.90
48206;DHT22;33995;48.202;16.260;2023-03-14T02:48:53;7.40;99.90
48206;DHT22;33995;48.202;16.260;2023-03-14T02:51:22;7.50;99.90
48206;DHT22;33995;48.202;16.260;2023-03-14T02:53:50;7.40;99.90
48206;DHT22;33995;48.202;16.260;2023-03-14T02:56:19;7.50;99.90
48206;DHT22;33995;48.202;16.260;2023-03-14T02:58:46;7.50;99.90
48206;DHT22;33995;48.202;16.260;2023-03-14T03:01:28;7.60;99.90
48206;DHT22;33995;48.202;16.260;2023-03-14T03:03:56;7.50;99.90
48206;DHT22;33995;48.202;16.260;2023-03-14T03:06:23;7.50;99.90
48206;DHT22;33995;48.202;16.260;2023-03-14T03:08:50;7.60;99.90
48206;DHT22;33995;48.202;16.260;2023-03-14T03:11:17;7.60;99.90
48206;DHT22;33995;48.202;16.260;2023-03-14T03:13:44;7.50;99.90
48206;DHT22;33995;48.202;16.260;2023-03-14T03:16:12;7.50;99.90
48206;DHT22;33995;48.202;16.260;2023-03-14T03:18:41;7.60;99.90
48206;DHT22;33995;48.202;16.260;2023-03-14T03:21:08;7.40;99.90
48206;DHT22;33995;48.202;16.260;2023-03-14T03:23:36;7.40;99.90
48206;DHT22;33995;48.202;16.260;2023-03-14T03:26:05;7.40;99.90
48206;DHT22;33995;48.202;16.260;2023-03-14T03:28:32;7.50;99.90
48206;DHT22;33995;48.202;16.260;2023-03-14T03:31:07;7.50;99.90
48206;DHT22;33995;48.202;16.260;2023-03-14T03:33:36;7.60;99.90
48206;DHT22;33995;48.202;16.260;2023-03-14T03:36:04;7.60;99.90
48206;DHT22;33995;48.202;16.260;2023-03-14T03:38:35;7.70;99.90
48206;DHT22;33995;48.202;16.260;2023-03-14T03:41:07;7.60;99.90
48206;DHT22;33995;48.202;16.260;2023-03-14T03:43:35;7.70;99.90
48206;DHT22;33995;48.202;16.260;2023-03-14T03:46:05;7.70;99.90
48206;DHT22;33995;48.202;16.260;2023-03-14T03:48:34;7.80;99.90
48206;DHT22;33995;48.202;16.260;2023-03-14T03:51:04;7.80;99.90
48206;DHT22;33995;48.202;16.260;2023-03-14T03:53:31;7.90;99.90
48206;DHT22;33995;48.202;16.260;2023-03-14T03:56:08;7.90;99.90
48206;DHT22;33995;48.202;16.260;2023-03-14T03:58:35;7.80;99.90
48206;DHT22;33995;48.202;16.260;2023-03-14T04:01:06;7.90;99.90
48206;DHT22;33995;48.202;16.260;2023-03-14T04:03:36;7.80;99.90
48206;DHT22;33995;48.202;16.260;2023-03-14T04:06:11;7.70;99.90
48206;DHT22;33995;48.202;16.260;2023-03-14T04:08:40;7.80;99.90
48206;DHT22;33995;48.202;16.260;2023-03-14T04:11:11;7.70;99.90
48206;DHT22;33995;48.202;16.260;2023-03-14T04:13:53;7.70;99.90
48206;DHT22;33995;48.202;16.260;2023-03-14T04:16:23;7.60;99.90
48206;DHT22;33995;48.202;16.260;2023-03-14T04:18:56;7.70;99.90
48206;DHT22;33995;48.202;16.260;2023-03-14T04:21:23;7.70;99.90
48206;DHT22;33995;48.202;16.260;2023-03-14T04:23:55;7.80;99.90
48206;DHT22;33995;48.202;16.260;2023-03-14T04:26:23;7.80;99.90
48206;DHT22;33995;48.202;16.260;2023-03-14T04:28:50;7.80;99.90
48206;DHT22;33995;48.202;16.260;2023-03-14T04:31:20;7.80;99.90
48206;DHT22;33995;48.202;16.260;2023-03-14T04:33:49;8.00;99.90
48206;DHT22;33995;48.202;16.260;2023-03-14T04:36:21;8.20;99.90
48206;DHT22;33995;48.202;16.260;2023-03-14T04:38:48;8.20;99.90
48206;DHT22;33995;48.202;16.260;2023-03-14T04:41:19;8.40;99.90
48206;DHT22;33995;48.202;16.260;2023-03-14T04:43:46;8.30;99.90
48206;DHT22;33995;48.202;16.260;2023-03-14T04:46:14;8.40;99.90
48206;DHT22;33995;48.202;16.260;2023-03-14T04:48:42;8.40;99.90
48206;DHT22;33995;48.202;16.260;2023-03-14T04:51:09;8.60;99.90
48206;DHT22;33995;48.202;16.260;2023-03-14T04:53:36;8.60;99.90
48206;DHT22;33995;48.202;16.260;2023-03-14T04:56:08;8.60;99.90
48206;DHT22;33995;48.202;16.260;2023-03-14T04:58:43;8.60;99.90
48206;DHT22;33995;48.202;16.260;2023-03-14T05:01:14;8.60;99.90
48206;DHT22;33995;48.202;16.260;2023-03-14T05:03:47;8.50;99.90
48206;DHT22;33995;48.202;16.260;2023-03-14T05:06:24;8.50;99.90
48206;DHT22;33995;48.202;16.260;2023-03-14T05:09:20;8.50;99.90
48206;DHT22;33995;48.202;16.260;2023-03-14T05:12:20;8.50;99.90
48206;DHT22;33995;48.202;16.260;2023-03-14T05:15:10;8.70;99.90
48206;DHT22;33995;48.202;16.260;2023-03-14T05:18:01;8.80;99.90
48206;DHT22;33995;48.202;16.260;2023-03-14T05:20:43;8.80;99.90
48206;DHT22;33995;48.202;16.260;2023-03-14T05:23:29;8.80;99.90
48206;DHT22;33995;48.202;16.260;2023-03-14T05:26:08;8.90;99.90
48206;DHT22;33995;48.202;16.260;2023-03-14T05:28:51;8.90;99.90
48206;DHT22;33995;48.202;16.260;2023-03-14T05:31:34;8.90;99.90
48206;DHT22;33995;48.202;16.260;2023-03-14T05:34:24;8.90;99.90
48206;DHT22;33995;48.202;16.260;2023-03-14T05:37:12;8.90;99.90
48206;DHT22;33995;48.202;16.260;2023-03-14T05:39:52;8.90;99.90
48206;DHT22;33995;48.202;16.260;2023-03-14T05:42:42;8.90;99.90
48206;DHT22;33995;48.202;16.260;2023-03-14T05:45:19;9.00;99.90
48206;DHT22;33995;48.202;16.260;2023-03-14T05:47:56;8.90;99.90
48206;DHT22;33995;48.202;16.260;2023-03-14T05:50:39;9.00;99.90
48206;DHT22;33995;48.202;16.260;2023-03-14T05:53:45;9.10;99.90
48206;DHT22;33995;48.202;16.260;2023-03-14T05:56:33;9.10;99.90
48206;DHT22;33995;48.202;16.260;2023-03-14T05:59:18;9.10;99.90
48206;DHT22;33995;48.202;16.260;2023-03-14T06:02:01;9.20;99.90
48206;DHT22;33995;48.202;16.260;2023-03-14T06:04:36;9.10;99.90
48206;DHT22;33995;48.202;16.260;2023-03-14T06:07:03;9.10;99.90
48206;DHT22;33995;48.202;16.260;2023-03-14T06:09:31;9.10;99.90
48206;DHT22;33995;48.202;16.260;2023-03-14T06:12:00;9.20;99.90
48206;DHT22;33995;48.202;16.260;2023-03-14T06:14:33;9.20;99.90
48206;DHT22;33995;48.202;16.260;2023-03-14T06:17:00;9.30;99.90
48206;DHT22;33995;48.202;16.260;2023-03-14T06:19:31;9.30;99.90
48206;DHT22;33995;48.202;16.260;2023-03-14T06:21:58;9.30;99.90
48206;DHT22;33995;48.202;16.260;2023-03-14T06:24:26;9.30;99.90
48206;DHT22;33995;48.202;16.260;2023-03-14T06:26:53;9.40;99.90
48206;DHT22;33995;48.202;16.260;2023-03-14T06:29:20;9.40;99.90
48206;DHT22;33995;48.202;16.260;2023-03-14T06:31:47;9.30;99.90
48206;DHT22;33995;48.202;16.260;2023-03-14T06:34:17;9.40;99.90
48206;DHT22;33995;48.202;16.260;2023-03-14T06:36:44;9.40;99.90
48206;DHT22;33995;48.202;16.260;2023-03-14T06:39:12;9.50;99.90
48206;DHT22;33995;48.202;16.260;2023-03-14T06:41:43;9.50;99.90
48206;DHT22;33995;48.202;16.260;2023-03-14T06:44:10;9.50;99.90
48206;DHT22;33995;48.202;16.260;2023-03-14T06:46:37;9.60;99.90
48206;DHT22;33995;48.202;16.260;2023-03-14T06:49:05;9.60;99.90
48206;DHT22;33995;48.202;16.260;2023-03-14T06:51:33;9.90;99.90
48206;DHT22;33995;48.202;16.260;2023-03-14T06:54:03;10.00;99.90
48206;DHT22;33995;48.202;16.260;2023-03-14T06:56:30;10.30;99.90
48206;DHT22;33995;48.202;16.260;2023-03-14T06:58:58;10.40;99.90
48206;DHT22;33995;48.202;16.260;2023-03-14T07:01:29;10.70;99.90
48206;DHT22;33995;48.202;16.260;2023-03-14T07:04:04;10.90;99.90
48206;DHT22;33995;48.202;16.260;2023-03-14T07:06:33;11.00;99.90
48206;DHT22;33995;48.202;16.260;2023-03-14T07:09:00;11.10;99.90
48206;DHT22;33995;48.202;16.260;2023-03-14T07:11:29;11.20;99.90
48206;DHT22;33995;48.202;16.260;2023-03-14T07:13:57;11.20;99.90
48206;DHT22;33995;48.202;16.260;2023-03-14T07:16:24;11.20;99.90
48206;DHT22;33995;48.202;16.260;2023-03-14T07:18:55;11.20;99.90
48206;DHT22;33995;48.202;16.260;2023-03-14T07:21:23;11.10;99.90
48206;DHT22;33995;48.202;16.260;2023-03-14T07:23:50;11.20;99.90
48206;DHT22;33995;48.202;16.260;2023-03-14T07:26:17;11.40;99.90
48206;DHT22;33995;48.202;16.260;2023-03-14T07:28:49;11.50;99.90
48206;DHT22;33995;48.202;16.260;2023-03-14T07:31:18;11.60;99.90
48206;DHT22;33995;48.202;16.260;2023-03-14T07:33:46;11.90;99.90
48206;DHT22;33995;48.202;16.260;2023-03-14T07:36:13;12.10;99.90
48206;DHT22;33995;48.202;16.260;2023-03-14T07:38:43;12.30;99.90
48206;DHT22;33995;48.202;16.260;2023-03-14T07:41:28;12.50;99.90
48206;DHT22;33995;48.202;16.260;2023-03-14T07:44:14;12.70;99.90
48206;DHT22;33995;48.202;16.260;2023-03-14T07:46:41;12.80;99.90
48206;DHT22;33995;48.202;16.260;2023-03-14T07:49:09;12.90;99.90
48206;DHT22;33995;48.202;16.260;2023-03-14T07:51:36;12.90;99.90
48206;DHT22;33995;48.202;16.260;2023-03-14T07:54:03;12.90;99.90
48206;DHT22;33995;48.202;16.260;2023-03-14T07:56:30;13.00;99.90
48206;DHT22;33995;48.202;16.260;2023-03-14T07:58:57;13.10;99.90
48206;DHT22;33995;48.202;16.260;2023-03-14T08:01:24;13.00;99.90
48206;DHT22;33995;48.202;16.260;2023-03-14T08:03:51;13.10;99.90
48206;DHT22;33995;48.202;16.260;2023-03-14T08:06:18;13.10;99.90
48206;DHT22;33995;48.202;16.260;2023-03-14T08:08:45;13.10;99.90
48206;DHT22;33995;48.202;16.260;2023-03-14T08:11:12;13.10;99.90
48206;DHT22;33995;48.202;16.260;2023-03-14T08:13:39;13.10;99.90
48206;DHT22;33995;48.202;16.260;2023-03-14T08:16:06;13.10;99.90
48206;DHT22;33995;48.202;16.260;2023-03-14T08:18:34;13.10;99.90
48206;DHT22;33995;48.202;16.260;2023-03-14T08:21:03;13.10;99.90
48206;DHT22;33995;48.202;16.260;2023-03-14T08:23:30;13.10;99.90
48206;DHT22;33995;48.202;16.260;2023-03-14T08:25:57;13.00;99.90
48206;DHT22;33995;48.202;16.260;2023-03-14T08:28:24;13.00;99.90
48206;DHT22;33995;48.202;16.260;2023-03-14T08:30:54;13.10;99.90
48206;DHT22;33995;48.202;16.260;2023-03-14T08:33:21;13.10;99.90
48206;DHT22;33995;48.202;16.260;2023-03-14T08:35:52;13.10;99.90
48206;DHT22;33995;48.202;16.260;2023-03-14T08:38:19;13.10;99.90
48206;DHT22;33995;48.202;16.260;2023-03-14T08:40:46;13.10;99.90
48206;DHT22;33995;48.202;16.260;2023-03-14T08:43:13;13.10;99.90
48206;DHT22;33995;48.202;16.260;2023-03-14T08:45:40;13.10;99.90
48206;DHT22;33995;48.202;16.260;2023-03-14T08:48:07;13.10;99.90
48206;DHT22;33995;48.202;16.260;2023-03-14T08:50:34;13.10;99.90
48206;DHT22;33995;48.202;16.260;2023-03-14T08:53:01;13.20;99.90
48206;DHT22;33995;48.202;16.260;2023-03-14T08:55:29;13.20;99.90
48206;DHT22;33995;48.202;16.260;2023-03-14T08:57:56;13.30;99.90
48206;DHT22;33995;48.202;16.260;2023-03-14T09:00:23;13.30;99.90
48206;DHT22;33995;48.202;16.260;2023-03-14T09:02:50;13.40;99.90
48206;DHT22;33995;48.202;16.260;2023-03-14T09:05:17;13.40;99.90
48206;DHT22;33995;48.202;16.260;2023-03-14T09:07:44;13.50;99.90
48206;DHT22;33995;48.202;16.260;2023-03-14T09:10:11;13.50;99.90
48206;DHT22;33995;48.202;16.260;2023-03-14T09:12:38;13.50;99.90
48206;DHT22;33995;48.202;16.260;2023-03-14T09:15:06;13.50;99.90
48206;DHT22;33995;48.202;16.260;2023-03-14T09:17:34;13.50;99.90
48206;DHT22;33995;48.202;16.260;2023-03-14T09:20:02;13.50;99.90
48206;DHT22;33995;48.202;16.260;2023-03-14T09:22:32;13.40;99.90
48206;DHT22;33995;48.202;16.260;2023-03-14T09:25:05;13.50;99.90
48206;DHT22;33995;48.202;16.260;2023-03-14T09:27:32;13.50;99.90
48206;DHT22;33995;48.202;16.260;2023-03-14T09:29:59;13.50;99.90
48206;DHT22;33995;48.202;16.260;2023-03-14T09:32:26;13.40;99.90
48206;DHT22;33995;48.202;16.260;2023-03-14T09:34:53;13.40;99.90
48206;DHT22;33995;48.202;16.260;2023-03-14T09:37:20;13.40;99.90
48206;DHT22;33995;48.202;16.260;2023-03-14T09:39:47;13.40;99.90
48206;DHT22;33995;48.202;16.260;2023-03-14T09:42:17;13.40;99.90
48206;DHT22;33995;48.202;16.260;2023-03-14T09:44:53;13.30;99.90
48206;DHT22;33995;48.202;16.260;2023-03-14T09:47:22;13.20;99.90
48206;DHT22;33995;48.202;16.260;2023-03-14T09:49:49;13.20;99.90
48206;DHT22;33995;48.202;16.260;2023-03-14T09:52:18;13.20;99.90
48206;DHT22;33995;48.202;16.260;2023-03-14T09:54:53;13.20;99.90
48206;DHT22;33995;48.202;16.260;2023-03-14T09:57:24;13.20;99.90
48206;DHT22;33995;48.202;16.260;2023-03-14T09:59:54;13.10;99.90
48206;DHT22;33995;48.202;16.260;2023-03-14T10:02:34;13.10;99.90
48206;DHT22;33995;48.202;16.260;2023-03-14T10:05:13;13.00;99.90
48206;DHT22;33995;48.202;16.260;2023-03-14T10:07:40;13.00;99.90
48206;DHT22;33995;48.202;16.260;2023-03-14T10:10:21;13.10;99.90
48206;DHT22;33995;48.202;16.260;2023-03-14T10:12:59;13.10;99.90
48206;DHT22;33995;48.202;16.260;2023-03-14T10:15:33;13.00;99.90
48206;DHT22;33995;48.202;16.260;2023-03-14T10:18:02;13.20;99.90
48206;DHT22;33995;48.202;16.260;2023-03-14T10:20:42;13.30;99.90
48206;DHT22;33995;48.202;16.260;2023-03-14T10:25:42;13.50;99.90
48206;DHT22;33995;48.202;16.260;2023-03-14T10:28:31;13.50;99.90
48206;DHT22;33995;48.202;16.260;2023-03-14T10:31:00;13.50;99.90
48206;DHT22;33995;48.202;16.260;2023-03-14T10:33:31;13.60;99.90
48206;DHT22;33995;48.202;16.260;2023-03-14T10:36:21;13.50;99.90
48206;DHT22;33995;48.202;16.260;2023-03-14T10:38:57;13.50;99.90
48206;DHT22;33995;48.202;16.260;2023-03-14T10:41:26;13.20;99.90
48206;DHT22;33995;48.202;16.260;2023-03-14T10:43:57;13.10;99.90
48206;DHT22;33995;48.202;16.260;2023-03-14T10:46:29;12.90;99.90
48206;DHT22;33995;48.202;16.260;2023-03-14T10:49:30;12.90;99.90
48206;DHT22;33995;48.202;16.260;2023-03-14T10:52:13;13.00;99.90
48206;DHT22;33995;48.202;16.260;2023-03-14T10:54:40;13.00;99.90
48206;DHT22;33995;48.202;16.260;2023-03-14T10:57:07;12.90;99.90
48206;DHT22;33995;48.202;16.260;2023-03-14T10:59:41;12.90;99.90
48206;DHT22;33995;48.202;16.260;2023-03-14T11:07:46;12.90;99.90
48206;DHT22;33995;48.202;16.260;2023-03-14T11:10:22;12.80;99.90
48206;DHT22;33995;48.202;16.260;2023-03-14T11:13:17;12.80;99.90
48206;DHT22;33995;48.202;16.260;2023-03-14T11:21:21;12.50;99.90
48206;DHT22;33995;48.202;16.260;2023-03-14T11:27:18;12.50;99.90
48206;DHT22;33995;48.202;16.260;2023-03-14T11:37:51;12.40;99.90
48206;DHT22;33995;48.202;16.260;2023-03-14T11:40:22;12.30;99.90
48206;DHT22;33995;48.202;16.260;2023-03-14T11:45:38;12.40;99.90
48206;DHT22;33995;48.202;16.260;2023-03-14T11:50:51;12.20;99.90
48206;DHT22;33995;48.202;16.260;2023-03-14T11:55:56;12.00;99.90
48206;DHT22;33995;48.202;16.260;2023-03-14T11:58:25;11.90;99.90
48206;DHT22;33995;48.202;16.260;2023-03-14T12:00:54;12.00;99.90
48206;DHT22;33995;48.202;16.260;2023-03-14T12:04:26;12.00;99.90
48206;DHT22;33995;48.202;16.260;2023-03-14T12:06:53;12.10;99.90
48206;DHT22;33995;48.202;16.260;2023-03-14T12:09:23;11.90;99.90
48206;DHT22;33995;48.202;16.260;2023-03-14T12:11:54;11.90;99.90
48206;DHT22;33995;48.202;16.260;2023-03-14T12:14:33;11.80;99.90
48206;DHT22;33995;48.202;16.260;2023-03-14T12:19:40;11.80;99.90
48206;DHT22;33995;48.202;16.260;2023-03-14T12:22:21;12.00;99.90
48206;DHT22;33995;48.202;16.260;2023-03-14T12:25:06;12.00;99.90
48206;DHT22;33995;48.202;16.260;2023-03-14T12:35:59;11.80;99.90
48206;DHT22;33995;48.202;16.260;2023-03-14T12:43:49;11.70;99.90
48206;DHT22;33995;48.202;16.260;2023-03-14T12:54:39;11.80;99.90
48206;DHT22;33995;48.202;16.260;2023-03-14T13:00:16;11.80;99.90
48206;DHT22;33995;48.202;16.260;2023-03-14T13:02:44;11.90;99.90
48206;DHT22;33995;48.202;16.260;2023-03-14T13:05:19;11.90;99.90
48206;DHT22;33995;48.202;16.260;2023-03-14T13:10:31;11.70;99.90
48206;DHT22;33995;48.202;16.260;2023-03-14T13:13:24;11.70;99.90
48206;DHT22;33995;48.202;16.260;2023-03-14T13:15:55;11.60;99.90
48206;DHT22;33995;48.202;16.260;2023-03-14T13:18:37;11.70;99.90
48206;DHT22;33995;48.202;16.260;2023-03-14T13:21:16;11.70;99.90
48206;DHT22;33995;48.202;16.260;2023-03-14T13:23:59;11.70;99.90
48206;DHT22;33995;48.202;16.260;2023-03-14T13:26:42;11.70;99.90
48206;DHT22;33995;48.202;16.260;2023-03-14T13:29:27;11.70;99.90
48206;DHT22;33995;48.202;16.260;2023-03-14T13:31:56;11.60;99.90
48206;DHT22;33995;48.202;16.260;2023-03-14T13:34:32;11.80;99.90
48206;DHT22;33995;48.202;16.260;2023-03-14T13:37:00;11.80;99.90
48206;DHT22;33995;48.202;16.260;2023-03-14T13:39:28;11.70;99.90
48206;DHT22;33995;48.202;16.260;2023-03-14T13:42:00;11.90;99.90
48206;DHT22;33995;48.202;16.260;2023-03-14T13:44:37;11.90;99.90
48206;DHT22;33995;48.202;16.260;2023-03-14T13:47:11;12.10;99.90
48206;DHT22;33995;48.202;16.260;2023-03-14T13:49:40;11.90;99.90
48206;DHT22;33995;48.202;16.260;2023-03-14T13:52:30;12.00;99.90
48206;DHT22;33995;48.202;16.260;2023-03-14T13:54:59;11.90;99.90
48206;DHT22;33995;48.202;16.260;2023-03-14T13:57:27;11.80;99.90
48206;DHT22;33995;48.202;16.260;2023-03-14T14:00:05;11.80;99.90
48206;DHT22;33995;48.202;16.260;2023-03-14T14:02:36;11.90;99.90
48206;DHT22;33995;48.202;16.260;2023-03-14T14:05:04;12.00;99.90
48206;DHT22;33995;48.202;16.260;2023-03-14T14:07:31;12.00;99.90
48206;DHT22;33995;48.202;16.260;2023-03-14T14:09:59;12.00;99.90
48206;DHT22;33995;48.202;16.260;2023-03-14T14:13:00;11.90;99.90
48206;DHT22;33995;48.202;16.260;2023-03-14T14:15:33;11.90;99.90
48206;DHT22;33995;48.202;16.260;2023-03-14T14:18:04;11.90;99.90
48206;DHT22;33995;48.202;16.260;2023-03-14T14:20:37;12.00;99.90
48206;DHT22;33995;48.202;16.260;2023-03-14T14:23:11;12.00;99.90
48206;DHT22;33995;48.202;16.260;2023-03-14T14:25:39;12.00;99.90
48206;DHT22;33995;48.202;16.260;2023-03-14T14:28:29;12.10;99.90
48206;DHT22;33995;48.202;16.260;2023-03-14T14:31:21;12.20;99.90
48206;DHT22;33995;48.202;16.260;2023-03-14T14:33:57;12.20;99.90
48206;DHT22;33995;48.202;16.260;2023-03-14T14:36:28;12.20;99.90
48206;DHT22;33995;48.202;16.260;2023-03-14T14:39:00;12.30;99.90
48206;DHT22;33995;48.202;16.260;2023-03-14T14:41:31;12.20;99.90
48206;DHT22;33995;48.202;16.260;2023-03-14T14:44:00;12.20;99.90
48206;DHT22;33995;48.202;16.260;2023-03-14T14:46:30;12.20;99.90
48206;DHT22;33995;48.202;16.260;2023-03-14T14:49:04;12.30;99.90
48206;DHT22;33995;48.202;16.260;2023-03-14T14:51:38;12.20;99.90
48206;DHT22;33995;48.202;16.260;2023-03-14T14:54:14;12.30;99.90
48206;DHT22;33995;48.202;16.260;2023-03-14T14:56:48;12.30;99.90
48206;DHT22;33995;48.202;16.260;2023-03-14T14:59:24;12.30;99.90
48206;DHT22;33995;48.202;16.260;2023-03-14T15:01:56;12.30;99.90
48206;DHT22;33995;48.202;16.260;2023-03-14T15:04:24;12.40;99.90
48206;DHT22;33995;48.202;16.260;2023-03-14T15:06:52;12.30;99.90
48206;DHT22;33995;48.202;16.260;2023-03-14T15:09:20;12.30;99.90
48206;DHT22;33995;48.202;16.260;2023-03-14T15:11:48;12.30;99.90
48206;DHT22;33995;48.202;16.260;2023-03-14T15:14:15;12.30;99.90
48206;DHT22;33995;48.202;16.260;2023-03-14T15:16:42;12.20;99.90
48206;DHT22;33995;48.202;16.260;2023-03-14T15:19:13;12.30;99.90
48206;DHT22;33995;48.202;16.260;2023-03-14T15:21:52;12.20;99.90
48206;DHT22;33995;48.202;16.260;2023-03-14T15:24:20;12.40;99.90
48206;DHT22;33995;48.202;16.260;2023-03-14T15:26:47;12.40;99.90
48206;DHT22;33995;48.202;16.260;2023-03-14T15:29:14;12.50;99.90
48206;DHT22;33995;48.202;16.260;2023-03-14T15:31:41;12.50;99.90
48206;DHT22;33995;48.202;16.260;2023-03-14T15:34:10;12.40;99.90
48206;DHT22;33995;48.202;16.260;2023-03-14T15:36:38;12.40;99.90
48206;DHT22;33995;48.202;16.260;2023-03-14T15:39:06;12.40;99.90
48206;DHT22;33995;48.202;16.260;2023-03-14T15:41:33;12.40;99.90
48206;DHT22;33995;48.202;16.260;2023-03-14T15:44:01;12.30;99.90
48206;DHT22;33995;48.202;16.260;2023-03-14T15:46:28;12.30;99.90
48206;DHT22;33995;48.202;16.260;2023-03-14T15:48:57;12.40;99.90
48206;DHT22;33995;48.202;16.260;2023-03-14T15:51:24;12.30;99.90
48206;DHT22;33995;48.202;16.260;2023-03-14T15:53:51;12.20;99.90
48206;DHT22;33995;48.202;16.260;2023-03-14T15:56:20;12.00;99.90
48206;DHT22;33995;48.202;16.260;2023-03-14T15:58:47;11.90;99.90
48206;DHT22;33995;48.202;16.260;2023-03-14T16:01:15;11.80;99.90
48206;DHT22;33995;48.202;16.260;2023-03-14T16:03:43;11.80;99.90
48206;DHT22;33995;48.202;16.260;2023-03-14T16:06:12;11.80;99.90
48206;DHT22;33995;48.202;16.260;2023-03-14T16:08:40;11.90;99.90
48206;DHT22;33995;48.202;16.260;2023-03-14T16:11:10;11.90;99.90
48206;DHT22;33995;48.202;16.260;2023-03-14T16:13:39;11.90;99.90
48206;DHT22;33995;48.202;16.260;2023-03-14T16:16:07;11.90;99.90
48206;DHT22;33995;48.202;16.260;2023-03-14T16:18:36;11.70;99.90
48206;DHT22;33995;48.202;16.260;2023-03-14T16:21:12;11.80;99.90
48206;DHT22;33995;48.202;16.260;2023-03-14T16:23:40;11.80;99.90
48206;DHT22;33995;48.202;16.260;2023-03-14T16:26:13;11.80;99.90
48206;DHT22;33995;48.202;16.260;2023-03-14T16:28:41;11.70;99.90
48206;DHT22;33995;48.202;16.260;2023-03-14T16:31:11;11.70;99.90
48206;DHT22;33995;48.202;16.260;2023-03-14T16:33:39;11.70;99.90
48206;DHT22;33995;48.202;16.260;2023-03-14T16:36:08;11.70;99.90
48206;DHT22;33995;48.202;16.260;2023-03-14T16:38:39;11.60;99.90
48206;DHT22;33995;48.202;16.260;2023-03-14T16:41:16;11.60;99.90
48206;DHT22;33995;48.202;16.260;2023-03-14T16:43:44;11.50;99.90
48206;DHT22;33995;48.202;16.260;2023-03-14T16:46:15;11.40;99.90
48206;DHT22;33995;48.202;16.260;2023-03-14T16:48:43;11.50;99.90
48206;DHT22;33995;48.202;16.260;2023-03-14T16:51:11;11.50;99.90
48206;DHT22;33995;48.202;16.260;2023-03-14T16:53:40;11.50;99.90
48206;DHT22;33995;48.202;16.260;2023-03-14T16:56:07;11.40;99.90
48206;DHT22;33995;48.202;16.260;2023-03-14T16:58:36;11.40;99.90